createdAt,value
2022-12-16T00:01:16.334Z,-6.47
2022-12-16T00:03:48.156Z,-6.45
2022-12-16T00:06:14.977Z,-6.47
2022-12-16T00:08:41.437Z,-6.48
2022-12-16T00:11:08.231Z,-6.60
2022-12-16T00:13:36.490Z,-6.45
2022-12-16T00:16:11.370Z,-6.50
2022-12-16T00:18:37.832Z,-6.65
2022-12-16T00:21:05.099Z,-6.66
2022-12-16T00:23:33.086Z,-6.63
2022-12-16T00:25:59.939Z,-6.56
2022-12-16T00:28:26.881Z,-6.45
2022-12-16T00:30:55.133Z,-6.57
2022-12-16T00:33:24.087Z,-6.68
2022-12-16T00:35:51.465Z,-6.74
2022-12-16T00:38:18.602Z,-6.78
2022-12-16T00:40:45.182Z,-6.75
2022-12-16T00:43:11.759Z,-6.76
2022-12-16T00:45:39.383Z,-6.75
2022-12-16T00:48:06.581Z,-6.80
2022-12-16T00:50:33.514Z,-6.87
2022-12-16T00:53:00.393Z,-6.81
2022-12-16T00:55:27.265Z,-6.81
2022-12-16T00:57:53.656Z,-6.86
2022-12-16T01:00:22.522Z,-6.89
2022-12-16T01:02:50.789Z,-6.75
2022-12-16T01:05:20.759Z,-6.76
2022-12-16T01:07:48.477Z,-6.95
2022-12-16T01:10:15.205Z,-6.96
2022-12-16T01:12:41.685Z,-6.96
2022-12-16T01:15:09.389Z,-6.89
2022-12-16T01:17:36.039Z,-7.14
2022-12-16T01:20:02.901Z,-6.99
2022-12-16T01:22:33.536Z,-7.00
2022-12-16T01:25:01.136Z,-6.93
2022-12-16T01:27:28.836Z,-7.03
2022-12-16T01:29:55.492Z,-7.05
2022-12-16T01:32:22.947Z,-6.89
2022-12-16T01:34:55.408Z,-6.89
2022-12-16T01:37:23.523Z,-7.02
2022-12-16T01:39:50.777Z,-6.99
2022-12-16T01:42:22.344Z,-6.96
2022-12-16T01:44:52.105Z,-6.95
2022-12-16T01:47:30.512Z,-7.09
2022-12-16T01:50:04.118Z,-7.16
2022-12-16T01:52:36.864Z,-7.20
2022-12-16T01:57:58.825Z,-7.06
2022-12-16T02:00:25.425Z,-7.00
2022-12-16T02:02:53.396Z,-7.05
2022-12-16T02:05:22.819Z,-7.11
2022-12-16T02:08:16.542Z,-7.20
2022-12-16T02:13:52.669Z,-7.21
2022-12-16T02:16:21.927Z,-7.22
2022-12-16T02:19:02.615Z,-7.21
2022-12-16T02:21:46.303Z,-7.11
2022-12-16T02:24:40.603Z,-7.21
2022-12-16T02:30:06.543Z,-7.26
2022-12-16T02:32:56.944Z,-7.29
2022-12-16T02:35:55.433Z,-7.37
2022-12-16T02:38:30.902Z,-7.51
2022-12-16T02:41:06.730Z,-7.48
2022-12-16T02:46:55.786Z,-7.26
2022-12-16T02:49:22.265Z,-7.25
2022-12-16T02:51:49.701Z,-7.37
2022-12-16T02:54:17.703Z,-7.33
2022-12-16T02:57:02.184Z,-7.35
2022-12-16T02:59:51.959Z,-7.35
2022-12-16T03:02:36.776Z,-7.40
2022-12-16T03:05:12.358Z,-7.39
2022-12-16T03:07:41.401Z,-7.37
2022-12-16T03:10:11.819Z,-7.43
2022-12-16T03:12:41.988Z,-7.47
2022-12-16T03:15:10.175Z,-7.35
2022-12-16T03:20:28.215Z,-7.52
2022-12-16T03:22:59.213Z,-7.51
2022-12-16T03:25:27.931Z,-7.53
2022-12-16T03:28:15.739Z,-7.50
2022-12-16T03:30:47.889Z,-7.43
2022-12-16T03:33:28.357Z,-7.44
2022-12-16T03:36:05.096Z,-7.51
2022-12-16T03:38:33.894Z,-7.49
2022-12-16T03:41:02.693Z,-7.48
2022-12-16T03:43:30.244Z,-7.61
2022-12-16T03:46:03.672Z,-7.64
2022-12-16T03:48:31.005Z,-7.61
2022-12-16T03:53:41.707Z,-7.62
2022-12-16T03:56:08.671Z,-7.57
2022-12-16T03:58:39.900Z,-7.49
2022-12-16T04:01:10.490Z,-7.46
2022-12-16T04:03:37.971Z,-7.55
2022-12-16T04:06:05.169Z,-7.55
2022-12-16T04:11:34.191Z,-7.48
2022-12-16T04:14:19.298Z,-7.55
2022-12-16T04:17:04.419Z,-7.54
2022-12-16T04:19:53.606Z,-7.70
2022-12-16T04:22:44.860Z,-7.78
2022-12-16T04:28:00.569Z,-7.67
2022-12-16T04:30:28.754Z,-7.71
2022-12-16T04:33:17.881Z,-7.87
2022-12-16T04:36:03.249Z,-7.88
2022-12-16T04:38:48.940Z,-7.84
2022-12-16T04:44:36.686Z,-7.83
2022-12-16T04:47:21.376Z,-7.88
2022-12-16T04:50:06.096Z,-7.83
2022-12-16T04:52:50.767Z,-7.83
2022-12-16T04:55:36.096Z,-7.82
2022-12-16T05:01:24.770Z,-8.02
2022-12-16T05:04:09.881Z,-8.10
2022-12-16T05:06:54.680Z,-8.02
2022-12-16T05:09:39.531Z,-7.95
2022-12-16T05:12:24.412Z,-8.07
2022-12-16T05:15:09.313Z,-8.07
2022-12-16T05:17:54.426Z,-7.97
2022-12-16T05:20:39.265Z,-7.97
2022-12-16T05:23:24.255Z,-8.03
2022-12-16T05:26:08.928Z,-8.13
2022-12-16T05:28:54.145Z,-8.11
2022-12-16T05:34:42.021Z,-8.05
2022-12-16T05:37:27.130Z,-8.08
2022-12-16T05:40:11.902Z,-8.22
2022-12-16T05:42:56.873Z,-8.22
2022-12-16T05:45:41.780Z,-8.31
2022-12-16T05:48:26.575Z,-8.38
2022-12-16T05:51:11.502Z,-8.43
2022-12-16T05:53:56.238Z,-8.39
2022-12-16T05:56:41.002Z,-8.36
2022-12-16T05:59:25.765Z,-8.40
2022-12-16T06:02:11.043Z,-8.39
2022-12-16T06:04:55.954Z,-8.43
2022-12-16T06:07:41.155Z,-8.36
2022-12-16T06:10:26.527Z,-8.34
2022-12-16T06:13:11.707Z,-8.33
2022-12-16T06:15:56.777Z,-8.43
2022-12-16T06:18:42.036Z,-8.12
2022-12-16T06:21:26.911Z,-7.78
2022-12-16T06:24:12.291Z,-7.86
2022-12-16T06:26:57.516Z,-8.18
2022-12-16T06:29:42.245Z,-8.31
2022-12-16T06:32:31.581Z,-8.37
2022-12-16T06:35:16.518Z,-8.47
2022-12-16T06:38:01.478Z,-8.44
2022-12-16T06:40:46.400Z,-8.38
2022-12-16T06:43:31.525Z,-8.40
2022-12-16T06:46:16.626Z,-8.53
2022-12-16T06:49:01.399Z,-8.45
2022-12-16T06:51:46.119Z,-8.38
2022-12-16T06:54:31.075Z,-8.41
2022-12-16T06:57:16.026Z,-8.33
2022-12-16T07:00:01.402Z,-8.37
2022-12-16T07:02:46.411Z,-8.40
2022-12-16T07:05:31.182Z,-8.46
2022-12-16T07:08:15.919Z,-8.37
2022-12-16T07:11:15.279Z,-8.35
2022-12-16T07:14:01.090Z,-8.32
2022-12-16T07:16:46.075Z,-8.27
2022-12-16T07:19:31.062Z,-8.47
2022-12-16T07:22:16.024Z,-8.42
2022-12-16T07:25:00.946Z,-8.47
2022-12-16T07:27:45.652Z,-8.46
2022-12-16T07:30:30.952Z,-8.48
2022-12-16T07:33:15.767Z,-8.44
2022-12-16T07:36:02.088Z,-8.52
2022-12-16T07:38:47.046Z,-8.54
2022-12-16T07:41:31.704Z,-8.58
2022-12-16T07:44:16.898Z,-8.36
2022-12-16T07:47:01.719Z,-8.33
2022-12-16T07:49:46.709Z,-8.34
2022-12-16T07:52:31.567Z,-8.28
2022-12-16T07:55:16.467Z,-8.22
2022-12-16T07:58:08.527Z,-8.19
2022-12-16T08:00:54.001Z,-8.20
2022-12-16T08:03:41.100Z,-8.14
2022-12-16T08:06:26.300Z,-8.24
2022-12-16T08:09:11.045Z,-8.21
2022-12-16T08:11:55.853Z,-8.13
2022-12-16T08:14:40.730Z,-8.19
2022-12-16T08:17:33.611Z,-8.17
2022-12-16T08:20:18.389Z,-8.15
2022-12-16T08:23:03.392Z,-8.01
2022-12-16T08:25:48.189Z,-7.98
2022-12-16T08:28:33.165Z,-7.92
2022-12-16T08:31:17.903Z,-7.84
2022-12-16T08:34:02.725Z,-7.74
2022-12-16T08:36:47.527Z,-7.67
2022-12-16T08:39:32.236Z,-7.55
2022-12-16T08:42:16.993Z,-7.43
2022-12-16T08:45:01.797Z,-7.45
2022-12-16T08:47:51.107Z,-7.32
2022-12-16T08:50:35.788Z,-7.21
2022-12-16T08:53:20.641Z,-7.07
2022-12-16T08:56:05.458Z,-6.90
2022-12-16T08:58:50.196Z,-6.93
2022-12-16T09:01:36.252Z,-6.76
2022-12-16T09:04:20.939Z,-6.65
2022-12-16T09:07:06.076Z,-6.50
2022-12-16T09:09:50.757Z,-6.36
2022-12-16T09:12:35.698Z,-6.28
2022-12-16T09:15:40.394Z,-6.21
2022-12-16T09:18:25.476Z,-6.00
2022-12-16T09:21:10.897Z,-5.92
2022-12-16T09:23:56.162Z,-5.85
2022-12-16T09:26:41.466Z,-5.87
2022-12-16T09:29:26.369Z,-5.71
2022-12-16T09:32:11.303Z,-5.67
2022-12-16T09:34:56.365Z,-5.59
2022-12-16T09:37:41.211Z,-5.47
2022-12-16T09:40:31.733Z,-5.50
2022-12-16T09:43:31.927Z,-5.43
2022-12-16T09:46:28.752Z,-5.31
2022-12-16T09:49:43.524Z,-5.00
2022-12-16T09:52:36.893Z,-4.13
2022-12-16T09:55:34.224Z,-4.22
2022-12-16T09:58:20.047Z,-4.52
2022-12-16T10:01:05.389Z,-4.44
2022-12-16T10:03:58.179Z,-4.44
2022-12-16T10:06:54.453Z,-4.40
2022-12-16T10:09:53.246Z,-4.35
2022-12-16T10:13:04.963Z,-4.22
2022-12-16T10:16:00.083Z,-4.13
2022-12-16T10:19:06.014Z,-4.08
2022-12-16T10:22:15.158Z,-3.96
2022-12-16T10:25:08.529Z,-3.85
2022-12-16T10:28:02.964Z,-3.74
2022-12-16T10:30:49.266Z,-3.71
2022-12-16T10:33:36.736Z,-3.66
2022-12-16T10:36:21.968Z,-3.53
2022-12-16T10:39:19.641Z,-3.51
2022-12-16T10:42:10.210Z,-3.91
2022-12-16T10:45:13.965Z,-3.75
2022-12-16T10:47:58.707Z,-3.86
2022-12-16T10:50:43.617Z,-3.75
2022-12-16T10:53:32.901Z,-3.86
2022-12-16T10:56:43.608Z,-3.73
2022-12-16T10:59:28.844Z,-3.49
2022-12-16T11:02:23.976Z,-3.22
2022-12-16T11:05:09.250Z,-3.24
2022-12-16T11:08:10.924Z,-3.17
2022-12-16T11:10:58.898Z,-3.19
2022-12-16T11:13:52.781Z,-3.02
2022-12-16T11:16:40.835Z,-3.00
2022-12-16T11:19:43.999Z,-2.76
2022-12-16T11:22:38.587Z,-2.66
2022-12-16T11:25:31.767Z,-2.69
2022-12-16T11:28:22.728Z,-2.58
2022-12-16T11:31:17.731Z,-2.64
2022-12-16T11:34:03.871Z,-2.68
2022-12-16T11:36:51.195Z,-2.66
2022-12-16T11:39:40.258Z,-2.73
2022-12-16T11:42:30.426Z,-2.56
2022-12-16T11:45:19.319Z,-2.48
2022-12-16T11:48:08.040Z,-2.36
2022-12-16T11:50:57.951Z,-2.37
2022-12-16T11:54:03.059Z,-2.26
2022-12-16T11:56:58.748Z,-2.25
2022-12-16T11:59:58.243Z,-2.07
2022-12-16T12:02:54.925Z,-2.08
2022-12-16T12:05:49.455Z,-2.07
2022-12-16T12:09:13.031Z,-1.99
2022-12-16T12:12:08.378Z,-1.99
2022-12-16T12:15:20.667Z,-1.88
2022-12-16T12:18:35.660Z,-1.78
2022-12-16T12:21:37.677Z,-1.66
2022-12-16T12:24:57.774Z,-1.68
2022-12-16T12:27:52.392Z,-1.51
2022-12-16T12:30:39.387Z,-1.43
2022-12-16T12:33:52.674Z,-1.33
2022-12-16T12:36:38.471Z,-1.27
2022-12-16T12:39:47.844Z,-1.19
2022-12-16T12:42:56.180Z,-1.07
2022-12-16T12:46:09.513Z,-1.00
2022-12-16T12:49:22.394Z,-0.97
2022-12-16T12:52:22.249Z,-0.89
2022-12-16T12:55:19.648Z,-0.97
2022-12-16T12:58:06.916Z,-0.79
2022-12-16T13:00:57.461Z,-0.71
2022-12-16T13:04:04.286Z,-0.56
2022-12-16T13:06:50.522Z,-0.41
2022-12-16T13:09:43.903Z,-0.34
2022-12-16T13:12:28.603Z,-0.36
2022-12-16T13:15:29.386Z,-0.25
2022-12-16T13:18:20.329Z,-0.24
2022-12-16T13:21:15.044Z,-0.26
2022-12-16T13:24:01.807Z,-0.25
2022-12-16T13:26:50.071Z,-0.39
2022-12-16T13:29:34.803Z,-0.49
2022-12-16T13:32:23.024Z,-0.51
2022-12-16T13:35:34.379Z,-0.44
2022-12-16T13:38:23.657Z,-0.29
2022-12-16T13:41:15.928Z,-0.36
2022-12-16T13:44:17.491Z,-0.31
2022-12-16T13:47:10.280Z,-0.34
2022-12-16T13:49:55.070Z,-0.16
2022-12-16T13:52:58.859Z,-0.11
2022-12-16T13:56:01.389Z,0.08
2022-12-16T13:59:09.269Z,0.14
2022-12-16T14:02:05.775Z,0.34
2022-12-16T14:04:58.439Z,0.49
2022-12-16T14:07:45.075Z,0.64
2022-12-16T14:10:49.597Z,0.90
2022-12-16T14:14:00.051Z,1.12
2022-12-16T14:17:33.456Z,1.02
2022-12-16T14:20:42.904Z,0.76
2022-12-16T14:23:58.056Z,0.58
2022-12-16T14:26:44.862Z,0.52
2022-12-16T14:29:44.043Z,0.36
2022-12-16T14:32:41.974Z,0.25
2022-12-16T14:35:37.957Z,0.07
2022-12-16T14:38:49.157Z,0.00
2022-12-16T14:41:38.885Z,-0.05
2022-12-16T14:44:34.035Z,-0.14
2022-12-16T14:47:19.959Z,-0.16
2022-12-16T14:50:10.616Z,-0.21
2022-12-16T14:52:56.012Z,-0.28
2022-12-16T14:55:53.068Z,-0.38
2022-12-16T14:58:40.884Z,-0.51
2022-12-16T15:01:39.996Z,-0.64
2022-12-16T15:04:39.589Z,-0.69
2022-12-16T15:07:31.631Z,-0.82
2022-12-16T15:10:18.408Z,-0.88
2022-12-16T15:13:05.698Z,-0.85
2022-12-16T15:15:53.215Z,-0.85
2022-12-16T15:18:42.163Z,-1.02
2022-12-16T15:21:27.467Z,-1.10
2022-12-16T15:24:12.787Z,-1.20
2022-12-16T15:26:57.835Z,-1.24
2022-12-16T15:29:52.858Z,-1.19
2022-12-16T15:32:44.035Z,-1.17
2022-12-16T15:35:30.227Z,-1.17
2022-12-16T15:38:32.085Z,-1.27
2022-12-16T15:41:17.286Z,-1.42
2022-12-16T15:44:04.775Z,-1.47
2022-12-16T15:46:51.338Z,-1.61
2022-12-16T15:49:59.204Z,-1.64
2022-12-16T15:52:56.047Z,-1.69
2022-12-16T15:55:55.994Z,-1.80
2022-12-16T15:58:47.099Z,-1.84
2022-12-16T16:01:38.993Z,-1.86
2022-12-16T16:04:37.806Z,-1.85
2022-12-16T16:07:22.767Z,-1.84
2022-12-16T16:10:07.633Z,-1.77
2022-12-16T16:12:52.885Z,-1.87
2022-12-16T16:15:37.909Z,-1.89
2022-12-16T16:18:24.873Z,-1.90
2022-12-16T16:21:10.246Z,-1.93
2022-12-16T16:23:55.044Z,-1.93
2022-12-16T16:26:44.904Z,-1.89
2022-12-16T16:29:30.364Z,-1.85
2022-12-16T16:32:15.384Z,-1.80
2022-12-16T16:35:01.018Z,-1.84
2022-12-16T16:37:45.871Z,-1.85
2022-12-16T16:40:47.189Z,-1.82
2022-12-16T16:43:32.432Z,-1.83
2022-12-16T16:46:18.077Z,-1.83
2022-12-16T16:49:02.878Z,-1.83
2022-12-16T16:51:48.210Z,-1.75
2022-12-16T16:54:33.494Z,-1.74
2022-12-16T16:57:20.222Z,-1.67
2022-12-16T17:00:05.165Z,-1.60
2022-12-16T17:02:50.361Z,-1.56
2022-12-16T17:05:35.492Z,-1.55
2022-12-16T17:08:20.352Z,-1.55
2022-12-16T17:11:05.479Z,-1.51
2022-12-16T17:13:50.523Z,-1.53
2022-12-16T17:16:35.674Z,-1.50
2022-12-16T17:19:22.067Z,-1.49
2022-12-16T17:22:06.875Z,-1.45
2022-12-16T17:24:54.303Z,-1.41
2022-12-16T17:27:43.739Z,-1.41
2022-12-16T17:30:44.936Z,-1.43
2022-12-16T17:33:33.222Z,-1.35
2022-12-16T17:36:18.451Z,-1.33
2022-12-16T17:39:03.836Z,-1.45
2022-12-16T17:41:51.064Z,-1.49
2022-12-16T17:44:36.599Z,-1.52
2022-12-16T17:47:22.427Z,-1.48
2022-12-16T17:50:07.284Z,-1.44
2022-12-16T17:52:51.952Z,-1.43
2022-12-16T17:55:36.991Z,-1.33
2022-12-16T17:58:22.626Z,-1.32
2022-12-16T18:01:07.422Z,-1.47
2022-12-16T18:03:52.286Z,-1.62
2022-12-16T18:06:38.589Z,-1.65
2022-12-16T18:09:23.307Z,-1.67
2022-12-16T18:12:08.488Z,-1.53
2022-12-16T18:14:53.197Z,-1.52
2022-12-16T18:17:38.540Z,-1.55
2022-12-16T18:20:23.951Z,-1.65
2022-12-16T18:23:11.953Z,-1.64
2022-12-16T18:25:57.137Z,-1.50
2022-12-16T18:28:43.006Z,-1.60
2022-12-16T18:31:28.390Z,-1.52
2022-12-16T18:34:13.350Z,-1.41
2022-12-16T18:36:58.055Z,-1.34
2022-12-16T18:39:43.039Z,-1.34
2022-12-16T18:42:28.956Z,-1.42
2022-12-16T18:45:13.891Z,-1.38
2022-12-16T18:47:58.511Z,-1.34
2022-12-16T18:50:43.329Z,-1.32
2022-12-16T18:53:28.188Z,-1.31
2022-12-16T18:56:25.399Z,-1.40
2022-12-16T18:59:10.701Z,-1.45
2022-12-16T19:01:56.077Z,-1.51
2022-12-16T19:04:41.365Z,-1.55
2022-12-16T19:07:26.255Z,-1.45
2022-12-16T19:10:10.968Z,-1.43
2022-12-16T19:12:56.043Z,-1.48
2022-12-16T19:15:41.623Z,-1.61
2022-12-16T19:18:26.948Z,-1.50
2022-12-16T19:21:15.391Z,-1.56
2022-12-16T19:24:00.785Z,-1.61
2022-12-16T19:26:46.178Z,-1.58
2022-12-16T19:29:30.982Z,-1.63
2022-12-16T19:32:15.887Z,-1.58
2022-12-16T19:35:00.830Z,-1.47
2022-12-16T19:37:45.623Z,-1.37
2022-12-16T19:40:30.357Z,-1.32
2022-12-16T19:43:15.264Z,-1.29
2022-12-16T19:46:00.077Z,-1.50
2022-12-16T19:48:44.965Z,-1.49
2022-12-16T19:51:29.768Z,-1.55
2022-12-16T19:54:14.574Z,-1.58
2022-12-16T19:56:59.259Z,-1.47
2022-12-16T19:59:44.143Z,-1.48
2022-12-16T20:02:30.607Z,-1.61
2022-12-16T20:05:15.964Z,-1.52
2022-12-16T20:08:00.701Z,-1.58
2022-12-16T20:10:45.555Z,-1.62
2022-12-16T20:13:31.443Z,-1.64
2022-12-16T20:16:24.429Z,-1.48
2022-12-16T20:19:09.815Z,-1.41
2022-12-16T20:21:55.103Z,-1.34
2022-12-16T20:24:41.900Z,-1.51
2022-12-16T20:27:27.025Z,-1.46
2022-12-16T20:30:11.892Z,-1.36
2022-12-16T20:32:57.307Z,-1.29
2022-12-16T20:35:42.137Z,-1.24
2022-12-16T20:38:27.637Z,-1.18
2022-12-16T20:41:20.684Z,-1.17
2022-12-16T20:44:06.364Z,-1.19
2022-12-16T20:46:56.260Z,-1.18
2022-12-16T20:50:00.372Z,-1.21
2022-12-16T20:52:45.545Z,-1.26
2022-12-16T20:55:30.952Z,-1.20
2022-12-16T20:58:15.847Z,-1.34
2022-12-16T21:01:01.054Z,-1.45
2022-12-16T21:03:46.193Z,-1.50
2022-12-16T21:06:31.161Z,-1.48
2022-12-16T21:09:16.725Z,-1.52
2022-12-16T21:12:01.608Z,-1.51
2022-12-16T21:14:46.714Z,-1.40
2022-12-16T21:17:31.868Z,-1.32
2022-12-16T21:20:16.491Z,-1.29
2022-12-16T21:23:01.545Z,-1.38
2022-12-16T21:25:46.491Z,-1.51
2022-12-16T21:28:31.466Z,-1.62
2022-12-16T21:31:18.984Z,-1.64
2022-12-16T21:34:04.176Z,-1.59
2022-12-16T21:36:49.240Z,-1.61
2022-12-16T21:39:33.964Z,-1.55
2022-12-16T21:42:18.823Z,-1.55
2022-12-16T21:45:03.625Z,-1.50
2022-12-16T21:47:48.437Z,-1.44
2022-12-16T21:50:33.297Z,-1.48
2022-12-16T21:53:18.250Z,-1.45
2022-12-16T21:56:10.143Z,-1.36
2022-12-16T21:58:55.178Z,-1.33
2022-12-16T22:01:40.538Z,-1.56
2022-12-16T22:04:25.954Z,-1.58
2022-12-16T22:07:10.928Z,-1.41
2022-12-16T22:09:56.323Z,-1.37
2022-12-16T22:12:41.852Z,-1.45
2022-12-16T22:15:27.698Z,-1.50
2022-12-16T22:18:12.703Z,-1.51
2022-12-16T22:20:57.786Z,-1.50
2022-12-16T22:23:49.612Z,-1.46
2022-12-16T22:26:34.613Z,-1.51
2022-12-16T22:29:19.573Z,-1.45
2022-12-16T22:32:04.396Z,-1.48
2022-12-16T22:34:49.537Z,-1.57
2022-12-16T22:37:51.119Z,-1.49
2022-12-16T22:40:37.314Z,-1.50
2022-12-16T22:43:22.570Z,-1.59
2022-12-16T22:46:16.693Z,-1.55
2022-12-16T22:49:01.574Z,-1.48
2022-12-16T22:51:46.737Z,-1.52
2022-12-16T22:54:48.160Z,-1.47
2022-12-16T22:57:40.654Z,-1.42
2022-12-16T23:00:26.462Z,-1.34
2022-12-16T23:03:11.579Z,-1.30
2022-12-16T23:05:56.572Z,-1.25
2022-12-16T23:08:41.584Z,-1.23
2022-12-16T23:11:37.178Z,-1.12
2022-12-16T23:14:22.458Z,-1.20
2022-12-16T23:17:07.300Z,-1.18
2022-12-16T23:19:52.132Z,-1.21
2022-12-16T23:22:37.143Z,-1.22
2022-12-16T23:25:22.436Z,-1.13
2022-12-16T23:28:07.128Z,-1.08
2022-12-16T23:30:55.068Z,-1.20
2022-12-16T23:33:41.855Z,-1.15
2022-12-16T23:36:27.158Z,-1.25
2022-12-16T23:39:12.353Z,-1.29
2022-12-16T23:41:57.097Z,-1.20
2022-12-16T23:44:42.592Z,-1.18
2022-12-16T23:47:27.558Z,-1.17
2022-12-16T23:50:15.853Z,-1.17
2022-12-16T23:53:00.967Z,-1.18
2022-12-16T23:55:45.924Z,-1.25
2022-12-16T23:58:30.709Z,-1.20
